createdAt,value
2019-05-16T00:02:19.752Z,90.20
2019-05-16T00:04:50.873Z,90.00
2019-05-16T00:07:21.987Z,90.00
2019-05-16T00:09:53.072Z,90.10
2019-05-16T00:12:24.172Z,90.00
2019-05-16T00:14:58.197Z,89.70
2019-05-16T00:17:29.082Z,89.00
2019-05-16T00:20:00.193Z,89.00
2019-05-16T00:22:31.261Z,88.90
2019-05-16T00:25:02.345Z,88.50
2019-05-16T00:27:34.156Z,88.80
2019-05-16T00:30:05.289Z,89.40
2019-05-16T00:32:38.717Z,89.60
2019-05-16T00:35:09.548Z,89.80
2019-05-16T00:37:40.739Z,90.10
2019-05-16T00:40:11.851Z,90.20
2019-05-16T00:42:42.937Z,90.70
2019-05-16T00:45:14.052Z,91.10
2019-05-16T00:47:45.125Z,91.30
2019-05-16T00:50:18.234Z,91.50
2019-05-16T00:52:49.171Z,91.40
2019-05-16T00:55:20.393Z,91.40
2019-05-16T00:57:51.623Z,91.40
2019-05-16T01:00:44.935Z,91.30
2019-05-16T01:03:16.081Z,91.40
2019-05-16T01:05:48.067Z,91.30
2019-05-16T01:08:19.345Z,91.30
2019-05-16T01:10:51.400Z,91.30
2019-05-16T01:13:22.917Z,91.40
2019-05-16T01:15:53.992Z,91.70
2019-05-16T01:18:25.143Z,92.10
2019-05-16T01:20:58.395Z,92.10
2019-05-16T01:23:29.218Z,92.00
2019-05-16T01:26:01.388Z,92.00
2019-05-16T01:28:32.492Z,91.80
2019-05-16T01:31:03.569Z,91.80
2019-05-16T01:33:35.310Z,91.90
2019-05-16T01:36:08.797Z,92.00
2019-05-16T01:38:39.226Z,92.10
2019-05-16T01:41:11.377Z,92.10
2019-05-16T01:43:42.482Z,91.90
2019-05-16T01:46:13.550Z,91.90
2019-05-16T01:48:44.656Z,91.70
2019-05-16T01:51:18.202Z,91.70
2019-05-16T01:53:48.985Z,91.90
2019-05-16T01:56:20.172Z,91.60
2019-05-16T01:58:51.309Z,91.60
2019-05-16T02:01:22.384Z,91.70
2019-05-16T02:03:53.526Z,91.80
2019-05-16T02:06:24.622Z,91.80
2019-05-16T02:08:57.856Z,91.50
2019-05-16T02:11:28.647Z,91.50
2019-05-16T02:14:00.769Z,91.90
2019-05-16T02:16:31.877Z,92.00
2019-05-16T02:19:02.973Z,92.10
2019-05-16T02:21:34.133Z,92.00
2019-05-16T02:24:05.517Z,92.00
2019-05-16T02:26:38.629Z,92.00
2019-05-16T02:29:13.311Z,91.90
2019-05-16T02:31:42.481Z,91.80
2019-05-16T02:34:13.569Z,91.90
2019-05-16T02:36:44.687Z,91.80
2019-05-16T02:39:15.772Z,91.90
2019-05-16T02:41:46.901Z,91.70
2019-05-16T02:44:20.808Z,91.80
2019-05-16T02:46:51.006Z,91.90
2019-05-16T02:49:22.152Z,91.70
2019-05-16T02:51:53.279Z,91.70
2019-05-16T02:54:24.467Z,91.70
2019-05-16T02:56:55.570Z,91.90
2019-05-16T02:59:26.649Z,91.30
2019-05-16T03:02:00.628Z,91.60
2019-05-16T03:04:30.834Z,91.80
2019-05-16T03:07:02.238Z,92.00
2019-05-16T03:09:33.335Z,91.70
2019-05-16T03:12:04.500Z,91.70
2019-05-16T03:14:35.569Z,91.80
2019-05-16T03:17:06.742Z,92.00
2019-05-16T03:19:41.477Z,92.00
2019-05-16T03:22:11.720Z,92.10
2019-05-16T03:24:43.033Z,92.20
2019-05-16T03:27:14.189Z,92.10
2019-05-16T03:29:45.259Z,92.10
2019-05-16T03:32:16.347Z,91.60
2019-05-16T03:34:47.539Z,91.50
2019-05-16T03:37:24.356Z,91.40
2019-05-16T03:39:51.633Z,91.00
2019-05-16T03:42:22.709Z,91.00
2019-05-16T03:44:53.786Z,91.00
2019-05-16T03:47:24.915Z,90.70
2019-05-16T03:49:55.997Z,91.10
2019-05-16T03:52:27.098Z,91.30
2019-05-16T03:55:01.382Z,91.00
2019-05-16T03:57:30.984Z,91.00
2019-05-16T04:00:02.049Z,91.30
2019-05-16T04:02:33.223Z,91.30
2019-05-16T04:05:04.402Z,90.90
2019-05-16T04:07:35.479Z,90.60
2019-05-16T04:10:10.689Z,90.50
2019-05-16T04:12:42.075Z,89.40
2019-05-16T04:15:13.456Z,89.30
2019-05-16T04:17:44.667Z,89.60
2019-05-16T04:20:15.810Z,89.60
2019-05-16T04:22:47.021Z,89.60
2019-05-16T04:25:21.354Z,89.20
2019-05-16T04:27:50.967Z,88.80
2019-05-16T04:30:22.268Z,88.20
2019-05-16T04:32:53.361Z,88.00
2019-05-16T04:35:24.505Z,88.00
2019-05-16T04:37:55.662Z,88.30
2019-05-16T04:40:26.764Z,88.60
2019-05-16T04:43:00.999Z,88.40
2019-05-16T04:45:31.804Z,87.80
2019-05-16T04:48:04.065Z,88.50
2019-05-16T04:50:35.228Z,87.50
2019-05-16T04:53:06.413Z,87.10
2019-05-16T04:55:37.582Z,87.30
2019-05-16T04:58:10.669Z,87.10
2019-05-16T05:00:42.092Z,87.40
2019-05-16T05:03:13.362Z,86.90
2019-05-16T05:05:44.481Z,87.00
2019-05-16T05:08:15.611Z,87.20
2019-05-16T05:10:46.734Z,86.80
2019-05-16T05:13:17.859Z,86.50
2019-05-16T05:15:50.931Z,85.70
2019-05-16T05:18:21.941Z,84.70
2019-05-16T05:20:54.136Z,84.40
2019-05-16T05:23:25.269Z,83.70
2019-05-16T05:25:56.382Z,83.30
2019-05-16T05:28:29.729Z,83.20
2019-05-16T05:31:00.307Z,82.60
2019-05-16T05:33:31.440Z,81.60
2019-05-16T05:36:02.555Z,80.40
2019-05-16T05:38:33.634Z,80.40
2019-05-16T05:41:04.831Z,79.50
2019-05-16T05:43:35.918Z,79.80
2019-05-16T05:46:07.087Z,78.90
2019-05-16T05:48:40.876Z,79.30
2019-05-16T05:51:11.596Z,79.20
2019-05-16T05:53:42.790Z,77.90
2019-05-16T05:56:13.911Z,77.00
2019-05-16T05:58:45.080Z,76.20
2019-05-16T06:01:16.202Z,75.30
2019-05-16T06:03:47.300Z,75.50
2019-05-16T06:06:20.825Z,74.00
2019-05-16T06:08:51.273Z,74.50
2019-05-16T06:11:23.466Z,73.00
2019-05-16T06:13:54.573Z,74.40
2019-05-16T06:16:26.769Z,75.30
2019-05-16T06:18:57.929Z,76.00
2019-05-16T06:21:33.078Z,74.90
2019-05-16T06:24:02.061Z,75.10
2019-05-16T06:26:33.179Z,75.60
2019-05-16T06:29:04.283Z,73.90
2019-05-16T06:31:35.409Z,73.50
2019-05-16T06:34:08.740Z,73.00
2019-05-16T06:36:40.671Z,73.00
2019-05-16T06:39:11.784Z,72.20
2019-05-16T06:41:42.893Z,67.70
2019-05-16T06:44:14.396Z,58.50
2019-05-16T06:46:59.728Z,57.80
2019-05-16T06:49:19.711Z,57.00
2019-05-16T06:51:51.659Z,57.30
2019-05-16T06:54:23.024Z,56.90
2019-05-16T06:56:54.148Z,55.80
2019-05-16T06:59:26.241Z,54.80
2019-05-16T07:01:57.416Z,52.10
2019-05-16T07:04:30.491Z,51.50
2019-05-16T07:07:03.165Z,48.40
2019-05-16T07:09:34.303Z,48.90
2019-05-16T07:12:05.503Z,49.40
2019-05-16T07:14:36.879Z,49.50
2019-05-16T07:17:09.745Z,49.60
2019-05-16T07:19:40.940Z,50.80
2019-05-16T07:22:13.486Z,51.00
2019-05-16T07:24:44.621Z,51.80
2019-05-16T07:27:15.746Z,53.30
2019-05-16T07:29:46.903Z,54.60
2019-05-16T07:32:19.862Z,55.40
2019-05-16T07:34:51.202Z,55.70
2019-05-16T07:37:22.363Z,55.20
2019-05-16T07:39:53.459Z,54.40
2019-05-16T07:42:24.692Z,55.00
2019-05-16T07:44:55.962Z,55.60
2019-05-16T07:47:27.069Z,56.50
2019-05-16T07:49:59.551Z,56.80
2019-05-16T07:52:35.888Z,57.50
2019-05-16T07:55:04.150Z,57.60
2019-05-16T07:57:35.271Z,57.50
2019-05-16T08:00:09.674Z,56.00
2019-05-16T08:02:41.006Z,56.20
2019-05-16T08:05:12.708Z,55.90
2019-05-16T08:07:44.398Z,55.80
2019-05-16T08:10:15.506Z,55.00
2019-05-16T08:12:47.335Z,53.30
2019-05-16T08:15:21.223Z,53.60
2019-05-16T08:17:51.873Z,52.70
2019-05-16T08:20:23.268Z,52.30
2019-05-16T08:22:54.389Z,50.70
2019-05-16T08:25:25.478Z,50.10
2019-05-16T08:27:56.730Z,48.70
2019-05-16T08:30:31.175Z,48.40
2019-05-16T08:35:33.649Z,45.70
2019-05-16T08:38:04.799Z,45.50
2019-05-16T08:41:01.290Z,44.90
2019-05-16T08:43:11.568Z,43.60
2019-05-16T08:45:41.910Z,43.20
2019-05-16T08:48:13.168Z,42.80
2019-05-16T08:53:17.077Z,37.30
2019-05-16T08:55:50.520Z,35.70
2019-05-16T08:58:22.640Z,36.10
2019-05-16T09:00:55.827Z,35.60
2019-05-16T09:03:27.014Z,37.40
2019-05-16T09:06:03.001Z,38.70
2019-05-16T09:08:32.053Z,40.20
2019-05-16T09:10:37.862Z,40.80
2019-05-16T09:11:26.892Z,40.90
2019-05-16T09:13:37.081Z,42.00
2019-05-16T09:16:08.249Z,41.80
2019-05-16T09:18:38.403Z,46.50
2019-05-16T09:18:45.293Z,40.30
2019-05-16T09:21:13.548Z,40.30
2019-05-16T09:23:46.977Z,40.90
2019-05-16T09:26:20.994Z,39.80
2019-05-16T09:28:51.603Z,41.10
2019-05-16T09:31:22.828Z,41.00
2019-05-16T09:33:56.578Z,40.80
2019-05-16T09:36:28.194Z,41.30
2019-05-16T09:38:59.585Z,42.40
2019-05-16T09:41:46.796Z,42.60
2019-05-16T09:44:04.573Z,42.60
2019-05-16T09:46:37.598Z,42.20
2019-05-16T09:49:19.619Z,42.60
2019-05-16T09:51:42.808Z,42.40
2019-05-16T09:54:13.906Z,41.80
2019-05-16T09:56:46.683Z,42.50
2019-05-16T09:59:18.080Z,41.60
2019-05-16T10:01:49.217Z,41.00
2019-05-16T10:04:20.439Z,40.90
2019-05-16T10:06:51.693Z,41.80
2019-05-16T10:09:40.215Z,41.70
2019-05-16T10:12:08.099Z,41.50
2019-05-16T10:14:30.348Z,42.30
2019-05-16T10:17:01.503Z,41.10
2019-05-16T10:19:32.639Z,39.20
2019-05-16T10:22:04.005Z,37.80
2019-05-16T10:24:37.535Z,37.40
2019-05-16T10:27:07.904Z,37.40
2019-05-16T10:29:39.092Z,39.00
2019-05-16T10:32:10.204Z,41.10
2019-05-16T10:34:41.310Z,42.60
2019-05-16T10:37:12.445Z,41.70
2019-05-16T10:39:43.530Z,42.00
2019-05-16T10:42:25.050Z,42.40
2019-05-16T10:44:48.376Z,42.00
2019-05-16T10:47:19.891Z,42.50
2019-05-16T10:49:51.019Z,41.20
2019-05-16T10:52:22.115Z,41.60
2019-05-16T10:54:58.243Z,41.60
2019-05-16T10:57:29.440Z,41.50
2019-05-16T11:00:09.682Z,41.50
2019-05-16T11:02:33.127Z,41.50
2019-05-16T11:05:24.584Z,42.10
2019-05-16T11:07:37.483Z,42.40
2019-05-16T11:10:08.672Z,42.10
2019-05-16T11:12:50.413Z,42.40
2019-05-16T11:15:12.623Z,41.80
2019-05-16T11:17:43.696Z,42.10
2019-05-16T11:20:19.617Z,42.00
2019-05-16T11:22:47.879Z,42.70
2019-05-16T11:25:28.455Z,42.80
2019-05-16T11:27:51.957Z,45.40
2019-05-16T11:30:23.090Z,46.80
2019-05-16T11:32:56.583Z,46.30
2019-05-16T11:35:27.450Z,47.20
2019-05-16T11:37:58.687Z,47.40
2019-05-16T11:40:30.404Z,46.90
2019-05-16T11:43:10.574Z,47.60
2019-05-16T11:45:36.585Z,48.00
2019-05-16T11:48:07.543Z,49.00
2019-05-16T11:50:38.787Z,49.80
2019-05-16T11:53:10.016Z,50.20
2019-05-16T11:55:51.934Z,49.90
2019-05-16T11:58:17.748Z,50.10
2019-05-16T12:00:48.617Z,49.70
2019-05-16T12:03:19.933Z,48.90
2019-05-16T12:05:51.164Z,49.30
2019-05-16T12:08:22.619Z,49.70
2019-05-16T12:10:56.243Z,50.00
2019-05-16T12:13:32.595Z,49.20
2019-05-16T12:16:00.752Z,50.30
2019-05-16T12:18:31.862Z,51.90
2019-05-16T12:21:02.993Z,53.30
2019-05-16T12:23:37.019Z,52.60
2019-05-16T12:26:07.749Z,52.30
2019-05-16T12:28:39.365Z,52.00
2019-05-16T12:31:10.541Z,52.50
2019-05-16T12:33:41.840Z,53.60
2019-05-16T12:36:12.949Z,52.30
2019-05-16T12:38:46.614Z,51.50
2019-05-16T12:41:17.675Z,50.80
2019-05-16T12:43:53.270Z,50.20
2019-05-16T12:46:21.910Z,50.50
2019-05-16T12:48:53.686Z,51.10
2019-05-16T12:51:26.485Z,51.70
2019-05-16T12:53:57.870Z,52.70
2019-05-16T12:56:29.028Z,53.20
2019-05-16T12:59:00.522Z,53.40
2019-05-16T13:01:34.340Z,52.10
2019-05-16T13:04:04.678Z,51.30
2019-05-16T13:06:37.107Z,51.10
2019-05-16T13:09:08.862Z,50.70
2019-05-16T13:11:39.991Z,50.70
2019-05-16T13:14:11.587Z,50.90
2019-05-16T13:16:42.824Z,52.10
2019-05-16T13:19:13.926Z,52.50
2019-05-16T13:21:46.979Z,53.30
2019-05-16T13:24:18.933Z,53.40
2019-05-16T13:26:51.127Z,52.60
2019-05-16T13:29:22.234Z,51.30
2019-05-16T13:31:53.353Z,50.30
2019-05-16T13:34:30.956Z,50.20
2019-05-16T13:37:02.391Z,50.40
2019-05-16T13:39:33.609Z,49.20
2019-05-16T13:42:07.716Z,48.40
2019-05-16T13:44:38.041Z,48.20
2019-05-16T13:47:09.163Z,47.90
2019-05-16T13:49:40.328Z,47.90
2019-05-16T13:52:11.427Z,48.20
2019-05-16T13:54:42.654Z,49.50
2019-05-16T13:57:13.862Z,49.40
2019-05-16T13:59:44.985Z,49.40
2019-05-16T14:02:17.361Z,49.90
2019-05-16T14:04:50.106Z,49.70
2019-05-16T14:07:21.257Z,50.20
2019-05-16T14:09:52.349Z,51.20
2019-05-16T14:12:23.710Z,51.40
2019-05-16T14:14:54.814Z,51.60
2019-05-16T14:17:27.483Z,52.00
2019-05-16T14:19:58.727Z,52.30
2019-05-16T14:22:29.929Z,52.50
2019-05-16T14:25:01.035Z,52.20
2019-05-16T14:27:32.321Z,52.60
2019-05-16T14:30:03.526Z,53.40
2019-05-16T14:32:41.315Z,53.60
2019-05-16T14:35:09.057Z,54.40
2019-05-16T14:37:40.718Z,54.70
2019-05-16T14:40:12.119Z,54.70
2019-05-16T14:42:43.628Z,55.50
2019-05-16T14:45:17.605Z,56.40
2019-05-16T14:47:49.290Z,56.80
2019-05-16T14:50:20.772Z,57.70
2019-05-16T14:52:52.045Z,57.60
2019-05-16T14:55:23.532Z,58.10
2019-05-16T14:57:56.731Z,59.10
2019-05-16T15:00:28.014Z,60.20
2019-05-16T15:03:00.506Z,61.10
2019-05-16T15:05:31.717Z,61.80
2019-05-16T15:08:02.852Z,63.20
2019-05-16T15:10:34.080Z,64.00
2019-05-16T15:13:07.748Z,64.70
2019-05-16T15:15:39.507Z,65.00
2019-05-16T15:18:10.911Z,65.90
2019-05-16T15:20:42.108Z,66.50
2019-05-16T15:23:13.292Z,66.90
2019-05-16T15:25:44.538Z,67.30
2019-05-16T15:28:17.196Z,68.30
2019-05-16T15:30:49.981Z,68.90
2019-05-16T15:33:21.177Z,69.40
2019-05-16T15:35:52.272Z,69.90
2019-05-16T15:38:23.539Z,70.90
2019-05-16T15:41:00.050Z,71.70
2019-05-16T15:43:27.785Z,72.40
2019-05-16T15:46:01.131Z,72.80
2019-05-16T15:48:32.524Z,73.40
2019-05-16T15:51:03.679Z,73.50
2019-05-16T15:53:36.259Z,73.30
2019-05-16T15:56:10.278Z,72.60
2019-05-16T15:58:40.381Z,73.90
2019-05-16T16:01:11.503Z,75.10
2019-05-16T16:03:42.766Z,75.40
2019-05-16T16:06:13.867Z,76.00
2019-05-16T16:08:46.993Z,76.30
2019-05-16T16:11:18.747Z,77.30
2019-05-16T16:13:49.993Z,78.60
2019-05-16T16:16:21.148Z,79.00
2019-05-16T16:18:52.277Z,80.10
2019-05-16T16:21:23.418Z,80.50
2019-05-16T16:23:54.594Z,82.80
2019-05-16T16:26:26.776Z,83.20
2019-05-16T16:28:58.042Z,83.40
2019-05-16T16:31:29.158Z,84.20
2019-05-16T16:34:00.269Z,84.00
2019-05-16T16:36:32.473Z,84.40
2019-05-16T16:39:04.187Z,84.60
2019-05-16T16:41:36.939Z,84.20
2019-05-16T16:44:08.297Z,84.90
2019-05-16T16:46:39.478Z,85.10
2019-05-16T16:49:10.679Z,85.90
2019-05-16T16:51:41.958Z,86.40
2019-05-16T16:54:13.119Z,87.20
2019-05-16T16:56:44.293Z,87.80
2019-05-16T16:59:17.305Z,88.00
2019-05-16T17:01:49.349Z,87.70
2019-05-16T17:04:20.568Z,88.20
2019-05-16T17:06:51.769Z,87.40
2019-05-16T17:09:22.898Z,87.30
2019-05-16T17:11:54.006Z,87.60
2019-05-16T17:14:26.338Z,88.60
2019-05-16T17:16:57.686Z,88.80
2019-05-16T17:19:28.822Z,88.10
2019-05-16T17:22:11.513Z,88.40
2019-05-16T17:24:32.877Z,89.00
2019-05-16T17:27:03.990Z,89.50
2019-05-16T17:29:36.937Z,89.50
2019-05-16T17:32:10.159Z,90.00
2019-05-16T17:34:41.281Z,90.40
2019-05-16T17:37:12.446Z,90.40
2019-05-16T17:39:43.686Z,90.70
2019-05-16T17:42:16.557Z,90.80
2019-05-16T17:44:47.943Z,90.90
2019-05-16T17:47:19.126Z,91.00
2019-05-16T17:49:50.428Z,91.00
2019-05-16T17:52:21.553Z,91.10
2019-05-16T17:54:53.347Z,91.30
2019-05-16T17:57:24.604Z,91.60
2019-05-16T17:59:57.433Z,91.80
2019-05-16T18:02:28.750Z,91.90
2019-05-16T18:04:59.859Z,92.00
2019-05-16T18:07:30.961Z,92.20
2019-05-16T18:10:07.269Z,92.40
2019-05-16T18:12:38.025Z,92.50
2019-05-16T18:15:09.183Z,92.60
2019-05-16T18:17:40.342Z,92.80
2019-05-16T18:20:11.469Z,92.80
2019-05-16T18:22:42.555Z,93.10
2019-05-16T18:25:13.705Z,93.10
2019-05-16T18:27:44.839Z,93.30
2019-05-16T18:30:16.941Z,93.40
2019-05-16T18:32:48.011Z,93.30
2019-05-16T18:35:20.210Z,93.60
2019-05-16T18:37:51.375Z,93.60
2019-05-16T18:40:22.523Z,93.60
2019-05-16T18:42:53.634Z,93.70
2019-05-16T18:45:26.940Z,93.80
2019-05-16T18:47:57.675Z,93.70
2019-05-16T18:50:28.832Z,93.80
2019-05-16T18:52:59.938Z,93.80
2019-05-16T18:55:31.060Z,94.00
2019-05-16T18:58:04.844Z,94.00
2019-05-16T19:00:37.290Z,94.00
2019-05-16T19:03:08.142Z,94.10
2019-05-16T19:05:39.495Z,94.20
2019-05-16T19:08:10.750Z,94.30
2019-05-16T19:10:41.867Z,94.30
2019-05-16T19:13:12.980Z,94.30
2019-05-16T19:15:46.580Z,94.30
2019-05-16T19:18:17.136Z,94.20
2019-05-16T19:20:49.213Z,94.20
2019-05-16T19:23:20.383Z,94.20
2019-05-16T19:25:51.614Z,94.20
2019-05-16T19:28:22.766Z,94.40
2019-05-16T19:30:53.851Z,94.30
2019-05-16T19:33:25.018Z,94.30
2019-05-16T19:35:56.677Z,94.30
2019-05-16T19:38:29.377Z,94.20
2019-05-16T19:41:00.731Z,94.00
2019-05-16T19:43:32.121Z,94.00
2019-05-16T19:46:03.415Z,94.10
2019-05-16T19:48:36.906Z,94.10
2019-05-16T19:51:08.085Z,94.10
2019-05-16T19:53:42.255Z,94.00
2019-05-16T19:56:13.718Z,93.90
2019-05-16T19:58:46.638Z,93.80
2019-05-16T20:01:17.816Z,94.00
2019-05-16T20:03:48.957Z,93.90
2019-05-16T20:06:20.110Z,94.00
2019-05-16T20:08:51.696Z,94.00
2019-05-16T20:11:22.765Z,93.90
2019-05-16T20:13:54.041Z,93.70
2019-05-16T20:16:27.325Z,93.80
2019-05-16T20:18:58.102Z,93.90
2019-05-16T20:21:29.305Z,94.00
2019-05-16T20:24:00.567Z,94.20
2019-05-16T20:26:31.650Z,94.40
2019-05-16T20:29:02.872Z,94.60
2019-05-16T20:31:33.971Z,94.60
2019-05-16T20:34:09.046Z,94.70
2019-05-16T20:36:38.954Z,94.70
2019-05-16T20:39:10.083Z,94.80
2019-05-16T20:41:41.268Z,95.40
2019-05-16T20:44:12.449Z,95.30
2019-05-16T20:46:43.547Z,95.60
2019-05-16T20:49:16.788Z,95.80
2019-05-16T20:51:49.983Z,96.10
2019-05-16T20:54:21.320Z,96.30
2019-05-16T20:56:52.490Z,96.50
2019-05-16T20:59:23.664Z,96.60
2019-05-16T21:01:57.338Z,96.80
2019-05-16T21:04:27.554Z,96.90
2019-05-16T21:07:05.708Z,96.90
2019-05-16T21:09:31.484Z,97.00
2019-05-16T21:12:02.598Z,97.00
2019-05-16T21:14:33.750Z,97.10
2019-05-16T21:17:06.634Z,96.90
2019-05-16T21:19:39.266Z,96.80
2019-05-16T21:22:11.620Z,96.90
2019-05-16T21:24:42.701Z,96.80
2019-05-16T21:27:13.812Z,96.80
2019-05-16T21:29:47.105Z,96.70
2019-05-16T21:32:17.766Z,96.50
2019-05-16T21:34:48.850Z,96.60
2019-05-16T21:37:20.690Z,96.70
2019-05-16T21:39:52.258Z,97.00
2019-05-16T21:42:23.371Z,97.80
2019-05-16T21:44:56.878Z,98.30
2019-05-16T21:47:27.691Z,98.80
2019-05-16T21:49:58.930Z,99.50
2019-05-16T21:52:30.061Z,99.90
2019-05-16T21:55:01.171Z,99.90
2019-05-16T21:57:32.555Z,99.90
2019-05-16T22:00:06.248Z,99.90
2019-05-16T22:02:38.297Z,99.90
2019-05-16T22:05:09.455Z,99.90
2019-05-16T22:07:42.158Z,99.90
2019-05-16T22:10:13.319Z,99.90
2019-05-16T22:12:47.467Z,99.90
2019-05-16T22:15:17.665Z,99.90
2019-05-16T22:17:50.419Z,99.90
2019-05-16T22:20:21.782Z,99.90
2019-05-16T22:22:52.908Z,99.90
2019-05-16T22:25:24.063Z,99.90
2019-05-16T22:27:57.376Z,99.90
2019-05-16T22:30:27.979Z,99.90
2019-05-16T22:32:59.092Z,99.90
2019-05-16T22:35:30.223Z,99.90
2019-05-16T22:38:01.360Z,99.90
2019-05-16T22:40:33.365Z,99.90
2019-05-16T22:43:09.770Z,99.90
2019-05-16T22:45:37.578Z,99.90
2019-05-16T22:48:08.784Z,99.90
2019-05-16T22:50:40.996Z,99.90
2019-05-16T22:53:12.112Z,99.90
2019-05-16T22:55:44.328Z,99.90
2019-05-16T22:58:16.378Z,99.90
2019-05-16T23:00:47.894Z,99.90
2019-05-16T23:03:19.007Z,99.90
2019-05-16T23:05:50.075Z,99.90
2019-05-16T23:08:21.178Z,99.90
2019-05-16T23:10:52.315Z,99.90
2019-05-16T23:13:23.448Z,99.90
2019-05-16T23:15:57.007Z,99.90
2019-05-16T23:18:27.507Z,99.90
2019-05-16T23:20:58.607Z,99.90
2019-05-16T23:23:29.747Z,99.90
2019-05-16T23:26:00.900Z,99.90
2019-05-16T23:28:32.051Z,99.90
2019-05-16T23:31:03.166Z,99.90
2019-05-16T23:33:36.360Z,99.90
2019-05-16T23:36:07.400Z,99.90
2019-05-16T23:38:39.313Z,99.90
2019-05-16T23:41:10.824Z,99.90
2019-05-16T23:43:42.136Z,99.90
2019-05-16T23:46:13.253Z,99.90
2019-05-16T23:48:44.511Z,99.90
2019-05-16T23:51:16.954Z,99.90
2019-05-16T23:53:48.259Z,99.90
2019-05-16T23:56:19.373Z,99.90
2019-05-16T23:58:51.628Z,99.90
